createdAt,value
2022-10-21T00:00:12.253Z,8.23
2022-10-21T00:02:41.831Z,8.17
2022-10-21T00:26:56.230Z,8.05
2022-10-21T00:29:22.916Z,8.06
2022-10-21T00:31:54.287Z,8.07
2022-10-21T00:34:24.820Z,8.00
2022-10-21T00:36:53.692Z,8.00
2022-10-21T00:39:20.311Z,7.97
2022-10-21T00:41:46.920Z,7.97
2022-10-21T00:44:15.678Z,7.93
2022-10-21T00:46:59.454Z,7.88
2022-10-21T00:49:46.494Z,7.84
2022-10-21T00:52:22.335Z,7.87
2022-10-21T00:54:59.179Z,7.92
2022-10-21T01:01:00.010Z,7.89
2022-10-21T01:03:31.887Z,7.83
2022-10-21T01:06:10.544Z,7.82
2022-10-21T01:08:38.975Z,7.80
2022-10-21T01:11:14.627Z,7.76
2022-10-21T01:14:32.855Z,7.76
2022-10-21T01:17:44.891Z,7.74
2022-10-21T01:20:41.387Z,7.74
2022-10-21T01:24:09.850Z,7.69
2022-10-21T01:27:20.296Z,7.68
2022-10-21T01:31:31.815Z,7.64
2022-10-21T01:34:45.571Z,7.62
2022-10-21T01:37:29.281Z,7.63
2022-10-21T01:40:13.866Z,7.63
2022-10-21T01:43:01.300Z,7.65
2022-10-21T01:45:46.669Z,7.61
2022-10-21T01:48:30.794Z,7.60
2022-10-21T01:51:05.482Z,7.58
2022-10-21T01:53:45.738Z,7.61
2022-10-21T01:56:16.615Z,7.63
2022-10-21T01:58:47.671Z,7.62
2022-10-21T02:01:20.051Z,7.65
2022-10-21T02:21:14.456Z,7.58
2022-10-21T02:23:54.320Z,7.55
2022-10-21T02:26:25.757Z,7.56
2022-10-21T02:28:57.296Z,7.53
2022-10-21T02:32:07.997Z,7.54
2022-10-21T02:34:43.308Z,7.57
2022-10-21T02:38:19.841Z,7.57
2022-10-21T02:40:58.211Z,7.58
2022-10-21T02:43:43.265Z,7.57
2022-10-21T02:46:14.598Z,7.54
2022-10-21T02:53:26.965Z,7.56
2022-10-21T02:55:53.579Z,7.55
2022-10-21T02:58:20.223Z,7.64
2022-10-21T03:00:46.950Z,7.67
2022-10-21T03:03:13.676Z,7.74
2022-10-21T03:05:43.167Z,7.77
2022-10-21T03:08:09.818Z,7.79
2022-10-21T03:10:36.632Z,7.82
2022-10-21T03:13:04.200Z,7.84
2022-10-21T03:15:30.893Z,7.88
2022-10-21T03:17:57.870Z,7.89
2022-10-21T03:20:24.700Z,7.88
2022-10-21T04:16:02.038Z,8.17
2022-10-21T04:18:31.443Z,8.19
2022-10-21T04:20:58.364Z,8.22
2022-10-21T04:23:25.127Z,8.26
2022-10-21T04:25:52.154Z,8.27
2022-10-21T04:28:18.816Z,8.28
2022-10-21T04:30:45.917Z,8.28
2022-10-21T04:33:12.599Z,8.29
2022-10-21T04:35:40.434Z,8.32
2022-10-21T04:38:07.582Z,8.33
2022-10-21T04:40:34.558Z,8.33
2022-10-21T04:43:01.311Z,8.37
2022-10-21T04:45:34.150Z,8.39
2022-10-21T04:48:00.756Z,8.36
2022-10-21T04:50:27.466Z,8.35
2022-10-21T04:52:54.128Z,8.37
2022-10-21T04:55:21.096Z,8.33
2022-10-21T04:57:47.959Z,8.32
2022-10-21T05:00:15.238Z,8.29
2022-10-21T05:02:42.052Z,8.27
2022-10-21T05:05:09.430Z,8.25
2022-10-21T05:07:36.128Z,8.27
2022-10-21T05:10:03.169Z,8.27
2022-10-21T05:12:29.817Z,8.25
2022-10-21T05:14:56.501Z,8.27
2022-10-21T05:43:33.565Z,8.28
2022-10-21T05:46:00.263Z,8.27
2022-10-21T05:48:27.092Z,8.29
2022-10-21T05:50:56.597Z,8.30
2022-10-21T05:53:24.931Z,8.26
2022-10-21T05:56:03.720Z,8.28
2022-10-21T05:58:32.802Z,8.29
2022-10-21T06:01:01.031Z,8.30
2022-10-21T06:03:32.997Z,8.30
2022-10-21T06:06:07.742Z,8.32
2022-10-21T06:08:39.111Z,8.33
2022-10-21T06:11:10.524Z,8.35
2022-10-21T06:41:47.264Z,8.50
2022-10-21T06:44:14.137Z,8.58
2022-10-21T06:46:40.828Z,8.69
2022-10-21T06:49:07.511Z,8.79
2022-10-21T06:51:34.308Z,8.85
2022-10-21T06:54:04.041Z,8.94
2022-10-21T06:56:34.048Z,9.02
2022-10-21T06:59:02.235Z,9.07
2022-10-21T07:01:48.173Z,9.11
2022-10-21T07:04:20.865Z,9.16
2022-10-21T07:06:49.778Z,9.20
2022-10-21T07:09:17.890Z,9.25
2022-10-21T07:11:45.781Z,9.20
2022-10-21T07:14:12.728Z,9.17
2022-10-21T07:16:39.529Z,9.19
2022-10-21T07:19:07.309Z,9.17
2022-10-21T07:21:34.531Z,9.17
2022-10-21T07:24:02.062Z,9.18
2022-10-21T07:26:35.561Z,9.23
2022-10-21T07:29:03.920Z,9.29
2022-10-21T07:31:39.856Z,9.28
2022-10-21T07:34:11.077Z,9.29
2022-10-21T07:36:44.209Z,9.26
2022-10-21T07:39:23.116Z,9.35
2022-10-21T07:41:55.724Z,9.40
2022-10-21T07:44:25.837Z,9.48
2022-10-21T07:46:54.296Z,9.55
2022-10-21T07:49:23.024Z,9.53
2022-10-21T07:51:53.816Z,9.51
2022-10-21T07:54:26.419Z,9.51
2022-10-21T07:56:53.667Z,9.56
2022-10-21T07:59:22.980Z,9.57
2022-10-21T08:01:53.351Z,9.58
2022-10-21T08:04:25.059Z,9.58
2022-10-21T08:06:52.071Z,9.63
2022-10-21T08:09:18.781Z,9.66
2022-10-21T08:11:45.759Z,9.67
2022-10-21T08:14:12.798Z,9.69
2022-10-21T08:16:40.412Z,9.69
2022-10-21T08:19:12.031Z,9.67
2022-10-21T08:21:38.770Z,9.68
2022-10-21T08:24:06.190Z,9.65
2022-10-21T08:26:33.250Z,9.72
2022-10-21T08:29:01.777Z,9.73
2022-10-21T08:31:28.564Z,9.76
2022-10-21T08:33:55.802Z,9.79
2022-10-21T08:36:26.173Z,9.89
2022-10-21T08:38:54.701Z,9.98
2022-10-21T08:41:30.464Z,10.02
2022-10-21T08:44:58.557Z,10.10
2022-10-21T08:47:45.836Z,10.18
2022-10-21T08:50:20.467Z,10.17
2022-10-21T08:52:58.440Z,10.22
2022-10-21T08:55:40.827Z,10.22
2022-10-21T08:58:23.305Z,10.25
2022-10-21T09:01:18.285Z,10.29
2022-10-21T09:03:59.244Z,10.40
2022-10-21T09:07:12.150Z,10.47
2022-10-21T09:10:08.817Z,10.52
2022-10-21T09:13:05.899Z,10.51
2022-10-21T09:16:10.624Z,10.47
2022-10-21T09:19:14.093Z,10.52
2022-10-21T09:22:34.271Z,10.54
2022-10-21T09:25:42.060Z,10.58
2022-10-21T09:28:16.325Z,10.62
2022-10-21T09:30:44.814Z,10.58
2022-10-21T09:33:32.341Z,10.58
2022-10-21T09:36:15.891Z,10.58
2022-10-21T09:39:00.785Z,10.62
2022-10-21T09:41:42.839Z,10.70
2022-10-21T09:44:24.104Z,10.75
2022-10-21T09:46:53.877Z,10.87
2022-10-21T09:50:02.218Z,10.90
2022-10-21T09:52:32.506Z,10.93
2022-10-21T09:54:59.698Z,11.06
2022-10-21T09:57:51.909Z,11.19
2022-10-21T10:00:18.703Z,11.32
2022-10-21T10:02:48.183Z,11.44
2022-10-21T10:05:48.078Z,11.62
2022-10-21T10:08:45.077Z,11.75
2022-10-21T10:11:21.749Z,11.85
2022-10-21T10:13:54.054Z,12.02
2022-10-21T10:16:32.644Z,12.24
2022-10-21T10:19:11.432Z,12.42
2022-10-21T10:21:38.079Z,12.39
2022-10-21T10:24:08.071Z,12.49
2022-10-21T10:26:38.335Z,12.92
2022-10-21T10:29:28.704Z,13.48
2022-10-21T10:32:02.881Z,13.63
2022-10-21T10:34:42.722Z,13.73
2022-10-21T10:37:27.738Z,13.80
2022-10-21T10:40:00.664Z,13.81
2022-10-21T10:42:41.800Z,13.83
2022-10-21T10:45:35.174Z,14.03
2022-10-21T10:48:07.085Z,13.98
2022-10-21T10:50:49.192Z,14.23
2022-10-21T10:53:54.428Z,14.54
2022-10-21T10:56:33.128Z,14.78
2022-10-21T10:59:08.901Z,14.63
2022-10-21T11:01:51.304Z,14.47
2022-10-21T11:04:32.994Z,14.26
2022-10-21T11:07:49.259Z,14.08
2022-10-21T11:10:53.386Z,13.90
2022-10-21T11:13:25.230Z,13.97
2022-10-21T11:16:50.376Z,14.08
2022-10-21T11:19:56.842Z,14.28
2022-10-21T11:23:01.303Z,15.70
2022-10-21T11:26:05.148Z,16.62
2022-10-21T11:29:25.936Z,16.87
2022-10-21T11:32:55.006Z,16.57
2022-10-21T11:35:40.244Z,16.36
2022-10-21T11:38:29.359Z,15.94
2022-10-21T11:46:36.888Z,15.49
2022-10-21T11:49:24.798Z,15.06
2022-10-21T11:52:28.427Z,14.69
2022-10-21T11:55:47.669Z,14.42
2022-10-21T11:58:49.032Z,14.16
2022-10-21T12:02:44.691Z,14.28
2022-10-21T12:06:03.321Z,14.40
2022-10-21T12:08:51.573Z,14.38
2022-10-21T12:11:41.799Z,14.37
2022-10-21T12:14:46.905Z,14.51
2022-10-21T12:17:20.773Z,14.57
2022-10-21T12:20:02.819Z,14.84
2022-10-21T12:22:33.777Z,15.03
2022-10-21T12:25:34.359Z,15.32
2022-10-21T12:28:43.185Z,15.49
2022-10-21T12:31:40.248Z,15.50
2022-10-21T12:34:12.373Z,15.46
2022-10-21T12:36:46.900Z,15.64
2022-10-21T12:39:36.437Z,15.77
2022-10-21T12:42:27.691Z,15.79
2022-10-21T12:44:54.637Z,15.97
2022-10-21T12:47:38.413Z,15.82
2022-10-21T12:50:30.162Z,16.27
2022-10-21T12:53:41.658Z,16.35
2022-10-21T12:56:11.416Z,16.35
2022-10-21T12:58:47.109Z,16.79
2022-10-21T13:02:06.589Z,17.17
2022-10-21T13:04:33.157Z,17.04
2022-10-21T13:07:29.399Z,16.98
2022-10-21T13:09:55.921Z,16.98
2022-10-21T13:12:25.494Z,16.99
2022-10-21T13:15:21.673Z,16.85
2022-10-21T13:17:52.082Z,16.59
2022-10-21T13:20:21.620Z,16.65
2022-10-21T13:23:14.758Z,16.41
2022-10-21T13:26:02.677Z,16.56
2022-10-21T13:28:31.491Z,16.47
2022-10-21T13:30:59.923Z,16.58
2022-10-21T13:33:39.028Z,16.44
2022-10-21T13:36:14.546Z,16.73
2022-10-21T13:38:55.418Z,16.94
2022-10-21T13:41:29.909Z,17.03
2022-10-21T13:44:02.414Z,17.17
2022-10-21T13:46:40.677Z,17.00
2022-10-21T13:49:35.276Z,16.89
2022-10-21T13:52:03.695Z,16.66
2022-10-21T13:54:35.539Z,16.75
2022-10-21T13:57:11.310Z,16.40
2022-10-21T13:59:40.279Z,16.22
2022-10-21T14:02:27.370Z,16.22
2022-10-21T14:04:54.270Z,15.95
2022-10-21T14:07:24.679Z,15.99
2022-10-21T14:09:58.943Z,16.15
2022-10-21T14:12:46.413Z,15.79
2022-10-21T14:15:28.476Z,15.58
2022-10-21T14:17:59.397Z,15.42
2022-10-21T14:20:37.516Z,15.29
2022-10-21T14:23:20.096Z,15.15
2022-10-21T14:25:55.468Z,15.05
2022-10-21T14:28:23.181Z,15.18
2022-10-21T14:30:50.274Z,15.33
2022-10-21T14:33:28.444Z,15.47
2022-10-21T14:36:19.637Z,15.43
2022-10-21T14:39:06.611Z,15.28
2022-10-21T14:41:45.835Z,15.11
2022-10-21T14:44:21.511Z,14.99
2022-10-21T14:46:54.027Z,14.83
2022-10-21T14:49:32.267Z,14.63
2022-10-21T14:52:08.889Z,14.46
2022-10-21T14:54:54.730Z,14.30
2022-10-21T14:58:01.250Z,14.13
2022-10-21T15:00:41.346Z,13.98
2022-10-21T15:03:12.760Z,13.86
2022-10-21T15:05:49.031Z,13.75
2022-10-21T15:08:22.718Z,13.68
2022-10-21T15:11:00.196Z,13.59
2022-10-21T15:13:27.517Z,13.52
2022-10-21T15:15:59.780Z,13.46
2022-10-21T15:18:43.769Z,13.36
2022-10-21T15:21:36.987Z,13.23
2022-10-21T15:24:43.597Z,13.05
2022-10-21T15:27:37.118Z,12.98
2022-10-21T15:30:19.851Z,12.90
2022-10-21T15:32:49.285Z,12.77
2022-10-21T15:35:21.556Z,12.68
2022-10-21T15:37:53.847Z,12.60
2022-10-21T15:40:25.808Z,12.53
2022-10-21T15:43:04.627Z,12.44
2022-10-21T15:45:33.979Z,12.41
2022-10-21T15:50:42.898Z,12.28
2022-10-21T15:53:10.847Z,12.22
2022-10-21T15:55:38.716Z,12.14
2022-10-21T15:58:06.476Z,12.02
2022-10-21T16:00:39.997Z,11.98
2022-10-21T16:03:09.403Z,11.92
2022-10-21T16:05:38.815Z,11.86
2022-10-21T16:08:05.607Z,11.81
2022-10-21T16:10:36.859Z,11.77
2022-10-21T16:13:04.746Z,11.62
2022-10-21T16:15:34.532Z,11.60
2022-10-21T16:18:01.577Z,11.53
2022-10-21T16:20:33.568Z,11.44
2022-10-21T16:23:02.854Z,11.40
2022-10-21T16:25:34.889Z,11.31
2022-10-21T16:28:02.649Z,11.20
2022-10-21T16:30:39.221Z,11.17
2022-10-21T16:33:06.673Z,11.18
2022-10-21T16:35:33.498Z,11.21
2022-10-21T16:38:02.758Z,11.21
2022-10-21T16:40:35.426Z,11.18
2022-10-21T16:43:05.083Z,11.17
2022-10-21T16:45:33.419Z,11.16
2022-10-21T16:48:04.212Z,11.21
2022-10-21T16:50:46.503Z,11.21
2022-10-21T16:53:19.139Z,11.24
2022-10-21T16:55:48.578Z,11.23
2022-10-21T16:58:17.756Z,11.28
2022-10-21T17:00:48.401Z,11.32
2022-10-21T17:03:15.419Z,11.38
2022-10-21T17:05:42.078Z,11.63
2022-10-21T17:08:08.804Z,11.65
2022-10-21T17:10:35.439Z,11.69
2022-10-21T17:13:05.045Z,11.73
2022-10-21T17:15:39.395Z,11.81
2022-10-21T17:18:06.173Z,11.84
2022-10-21T17:20:33.386Z,11.91
2022-10-21T17:23:00.946Z,11.98
2022-10-21T17:25:30.092Z,12.00
2022-10-21T17:27:57.752Z,12.04
2022-10-21T17:30:25.037Z,12.06
2022-10-21T17:32:51.655Z,12.07
2022-10-21T17:35:21.054Z,12.16
2022-10-21T17:37:49.917Z,12.16
2022-10-21T17:40:27.154Z,12.20
2022-10-21T17:42:54.342Z,12.20
2022-10-21T17:45:22.637Z,12.23
2022-10-21T17:47:52.462Z,12.26
2022-10-21T17:50:23.583Z,12.27
2022-10-21T17:52:55.382Z,12.31
2022-10-21T17:55:22.717Z,12.32
2022-10-21T17:57:51.136Z,12.35
2022-10-21T18:00:20.761Z,12.39
2022-10-21T18:02:47.581Z,12.39
2022-10-21T18:05:16.155Z,12.36
2022-10-21T18:07:42.934Z,12.31
2022-10-21T18:10:10.227Z,12.31
2022-10-21T18:12:37.999Z,12.25
2022-10-21T18:15:05.778Z,12.21
2022-10-21T18:17:37.179Z,12.17
2022-10-21T18:20:04.750Z,12.14
2022-10-21T18:22:33.646Z,12.11
2022-10-21T18:25:00.241Z,12.06
2022-10-21T18:27:26.906Z,12.04
2022-10-21T18:29:55.689Z,12.08
2022-10-21T18:32:22.439Z,12.05
2022-10-21T18:34:49.210Z,11.97
2022-10-21T18:37:22.342Z,11.97
2022-10-21T18:39:49.031Z,11.90
2022-10-21T18:42:15.701Z,11.76
2022-10-21T18:44:42.489Z,11.64
2022-10-21T18:47:09.999Z,11.60
2022-10-21T18:49:36.993Z,11.48
2022-10-21T18:52:04.430Z,11.46
2022-10-21T18:54:33.652Z,11.51
2022-10-21T18:57:00.409Z,11.42
2022-10-21T18:59:27.044Z,11.48
2022-10-21T19:01:56.347Z,11.36
2022-10-21T19:04:23.075Z,11.34
2022-10-21T19:06:49.776Z,11.30
2022-10-21T19:09:25.719Z,11.31
2022-10-21T19:11:53.805Z,11.26
2022-10-21T19:14:21.505Z,11.27
2022-10-21T19:16:49.059Z,11.22
2022-10-21T19:19:18.781Z,11.19
2022-10-21T19:21:50.470Z,11.13
2022-10-21T19:24:17.167Z,11.14
2022-10-21T19:26:46.317Z,11.15
2022-10-21T19:29:19.620Z,11.16
2022-10-21T19:34:26.087Z,11.18
2022-10-21T19:36:53.726Z,11.16
2022-10-21T19:39:20.536Z,11.13
2022-10-21T19:41:47.841Z,11.13
2022-10-21T19:44:14.683Z,11.23
2022-10-21T19:46:42.592Z,11.25
2022-10-21T19:49:12.877Z,11.21
2022-10-21T19:51:42.003Z,11.15
2022-10-21T19:54:12.341Z,11.09
2022-10-21T19:56:39.860Z,11.01
2022-10-21T19:59:08.146Z,10.95
2022-10-21T20:01:35.383Z,11.00
2022-10-21T20:04:04.833Z,11.10
2022-10-21T20:06:36.398Z,11.10
2022-10-21T20:09:09.596Z,11.05
2022-10-21T20:11:39.016Z,11.11
2022-10-21T20:14:06.730Z,11.12
2022-10-21T20:16:41.790Z,11.25
2022-10-21T20:19:12.575Z,11.30
2022-10-21T20:21:39.632Z,11.27
2022-10-21T20:24:06.844Z,11.27
2022-10-21T20:26:34.613Z,11.13
2022-10-21T20:29:02.080Z,11.03
2022-10-21T20:31:29.804Z,11.05
2022-10-21T20:33:57.071Z,10.98
2022-10-21T20:36:29.728Z,10.91
2022-10-21T20:39:02.111Z,10.91
2022-10-21T20:41:37.319Z,10.98
2022-10-21T20:44:10.982Z,11.02
2022-10-21T20:46:37.871Z,11.24
2022-10-21T20:49:06.991Z,11.47
2022-10-21T20:51:36.548Z,11.66
2022-10-21T20:54:11.065Z,11.78
2022-10-21T20:56:40.812Z,11.72
2022-10-21T20:59:15.039Z,11.77
2022-10-21T21:01:45.612Z,11.87
2022-10-21T21:04:20.491Z,11.85
2022-10-21T21:06:49.755Z,11.86
2022-10-21T21:09:50.181Z,11.89
2022-10-21T21:12:06.821Z,11.95
2022-10-21T21:14:33.565Z,12.01
2022-10-21T21:17:00.251Z,12.10
2022-10-21T21:19:26.998Z,12.13
2022-10-21T21:21:53.836Z,12.11
2022-10-21T21:24:20.547Z,12.17
2022-10-21T21:26:47.296Z,12.13
2022-10-21T21:29:16.724Z,12.12
2022-10-21T21:31:44.660Z,12.18
2022-10-21T21:34:11.593Z,12.17
2022-10-21T21:36:38.552Z,12.20
2022-10-21T21:39:07.915Z,12.20
2022-10-21T21:41:35.841Z,12.24
2022-10-21T21:44:04.641Z,12.23
2022-10-21T21:46:31.627Z,12.24
2022-10-21T21:49:05.649Z,12.25
2022-10-21T21:51:36.645Z,12.22
2022-10-21T21:54:07.763Z,12.25
2022-10-21T21:56:35.251Z,12.24
2022-10-21T21:59:02.660Z,12.26
2022-10-21T22:01:30.364Z,12.25
2022-10-21T22:03:59.786Z,12.25
2022-10-21T22:06:33.665Z,12.20
2022-10-21T22:09:02.409Z,12.23
2022-10-21T22:11:33.128Z,12.23
2022-10-21T22:14:00.324Z,12.23
2022-10-21T22:16:30.239Z,12.33
2022-10-21T22:19:01.601Z,12.34
2022-10-21T22:21:30.988Z,12.27
2022-10-21T22:23:58.965Z,12.31
2022-10-21T22:26:26.841Z,12.33
2022-10-21T22:28:54.201Z,12.30
2022-10-21T22:31:27.195Z,12.37
2022-10-21T22:33:56.933Z,12.40
2022-10-21T22:36:23.483Z,12.41
2022-10-21T22:38:50.069Z,12.51
2022-10-21T22:41:16.656Z,12.54
2022-10-21T22:43:43.255Z,12.60
2022-10-21T22:48:57.621Z,12.63
2022-10-21T22:51:24.299Z,12.67
2022-10-21T22:53:55.313Z,12.74
2022-10-21T22:56:25.943Z,12.75
2022-10-21T22:58:52.641Z,12.73
2022-10-21T23:01:19.687Z,12.73
2022-10-21T23:03:46.304Z,12.75
2022-10-21T23:06:12.976Z,12.75
2022-10-21T23:08:39.672Z,12.75
2022-10-21T23:11:06.622Z,12.75
2022-10-21T23:13:33.571Z,12.78
2022-10-21T23:16:00.204Z,12.78
2022-10-21T23:18:26.845Z,12.77
2022-10-21T23:20:53.511Z,12.80
2022-10-21T23:23:20.143Z,12.85
2022-10-21T23:25:46.698Z,12.86
2022-10-21T23:28:13.646Z,12.81
2022-10-21T23:30:43.728Z,12.83
2022-10-21T23:33:10.988Z,12.83
2022-10-21T23:35:37.595Z,12.83
2022-10-21T23:38:04.355Z,12.78
2022-10-21T23:40:31.398Z,12.82
2022-10-21T23:42:58.069Z,12.82
2022-10-21T23:45:24.819Z,12.80
2022-10-21T23:47:51.485Z,12.82
2022-10-21T23:50:18.207Z,12.82
2022-10-21T23:52:44.949Z,12.80
2022-10-21T23:55:11.604Z,12.77
2022-10-21T23:57:38.977Z,12.77
